createdAt,value
2018-07-25T00:00:06.521Z,14.13
2018-07-25T00:01:10.582Z,13.45
2018-07-25T00:02:14.656Z,12.80
2018-07-25T00:03:18.672Z,12.85
2018-07-25T00:04:22.757Z,13.20
2018-07-25T00:05:27.108Z,12.68
2018-07-25T00:06:31.196Z,13.15
2018-07-25T00:07:35.279Z,13.43
2018-07-25T00:08:39.777Z,13.90
2018-07-25T00:09:43.931Z,13.38
2018-07-25T00:10:53.337Z,12.75
2018-07-25T00:11:57.449Z,12.80
2018-07-25T00:13:01.648Z,12.55
2018-07-25T00:14:06.058Z,13.00
2018-07-25T00:15:10.155Z,12.63
2018-07-25T00:16:14.215Z,12.65
2018-07-25T00:17:18.253Z,11.90
2018-07-25T00:18:22.314Z,12.78
2018-07-25T00:19:26.366Z,12.33
2018-07-25T00:20:30.622Z,12.93
2018-07-25T00:21:34.704Z,12.28
2018-07-25T00:22:38.829Z,13.30
2018-07-25T00:23:42.890Z,12.45
2018-07-25T00:24:46.934Z,11.97
2018-07-25T00:25:51.144Z,12.07
2018-07-25T00:26:55.228Z,12.03
2018-07-25T00:27:59.333Z,12.80
2018-07-25T00:29:03.339Z,11.48
2018-07-25T00:30:07.642Z,12.00
2018-07-25T00:31:11.742Z,12.37
2018-07-25T00:32:15.791Z,12.25
2018-07-25T00:33:20.129Z,12.45
2018-07-25T00:34:24.207Z,12.50
2018-07-25T00:35:28.237Z,11.68
2018-07-25T00:36:32.426Z,12.00
2018-07-25T00:37:36.533Z,12.35
2018-07-25T00:38:40.819Z,12.95
2018-07-25T00:39:45.113Z,12.58
2018-07-25T00:40:49.177Z,13.00
2018-07-25T00:41:53.263Z,13.72
2018-07-25T00:42:57.128Z,12.73
2018-07-25T00:44:01.220Z,14.03
2018-07-25T00:45:05.483Z,12.33
2018-07-25T00:46:09.826Z,12.53
2018-07-25T00:47:14.097Z,12.85
2018-07-25T00:48:18.225Z,13.20
2018-07-25T00:49:22.318Z,11.20
2018-07-25T00:50:26.625Z,12.15
2018-07-25T00:51:30.994Z,11.63
2018-07-25T00:52:35.016Z,13.40
2018-07-25T00:53:39.107Z,13.08
2018-07-25T00:54:43.919Z,11.22
2018-07-25T00:55:47.967Z,12.10
2018-07-25T00:56:52.019Z,13.35
2018-07-25T00:57:56.027Z,12.18
2018-07-25T00:59:00.104Z,12.45
2018-07-25T01:00:04.740Z,12.10
2018-07-25T01:01:08.791Z,12.68
2018-07-25T01:02:13.098Z,12.73
2018-07-25T01:03:17.257Z,12.05
2018-07-25T01:04:21.269Z,12.73
2018-07-25T01:05:25.381Z,12.60
2018-07-25T01:06:29.399Z,12.80
2018-07-25T01:07:33.426Z,12.07
2018-07-25T01:08:37.214Z,12.07
2018-07-25T01:09:41.259Z,12.28
2018-07-25T01:10:45.353Z,12.63
2018-07-25T01:11:49.501Z,11.22
2018-07-25T01:12:53.564Z,12.65
2018-07-25T01:13:57.611Z,12.23
2018-07-25T01:15:01.674Z,11.53
2018-07-25T01:16:05.798Z,10.93
2018-07-25T01:17:09.939Z,11.63
2018-07-25T01:18:13.984Z,12.20
2018-07-25T01:19:18.014Z,12.98
2018-07-25T01:20:22.179Z,12.25
2018-07-25T01:21:26.271Z,11.90
2018-07-25T01:22:30.335Z,12.78
2018-07-25T01:23:34.418Z,11.85
2018-07-25T01:24:38.625Z,11.93
2018-07-25T01:25:42.684Z,12.10
2018-07-25T01:26:46.724Z,12.45
2018-07-25T01:27:50.758Z,11.68
2018-07-25T01:28:54.792Z,12.10
2018-07-25T01:29:58.857Z,11.83
2018-07-25T01:31:02.675Z,11.35
2018-07-25T01:32:06.802Z,11.90
2018-07-25T01:33:10.880Z,12.43
2018-07-25T01:34:14.989Z,12.47
2018-07-25T01:35:19.092Z,12.60
2018-07-25T01:36:23.121Z,12.82
2018-07-25T01:37:27.226Z,11.93
2018-07-25T01:38:31.290Z,11.40
2018-07-25T01:39:35.312Z,12.50
2018-07-25T01:40:39.329Z,12.13
2018-07-25T01:41:43.515Z,11.50
2018-07-25T01:42:47.692Z,12.63
2018-07-25T01:43:51.840Z,11.53
2018-07-25T01:44:55.850Z,12.53
2018-07-25T01:45:59.895Z,12.53
2018-07-25T01:47:03.974Z,11.50
2018-07-25T01:48:08.070Z,12.03
2018-07-25T01:49:12.244Z,12.60
2018-07-25T01:50:16.363Z,12.18
2018-07-25T01:51:20.655Z,11.85
2018-07-25T01:52:24.834Z,11.15
2018-07-25T01:53:28.960Z,12.93
2018-07-25T01:54:33.026Z,12.43
2018-07-25T01:55:37.075Z,12.30
2018-07-25T01:56:41.231Z,12.90
2018-07-25T01:57:45.378Z,12.00
2018-07-25T01:58:49.574Z,12.75
2018-07-25T01:59:53.626Z,12.90
2018-07-25T02:00:57.640Z,12.65
2018-07-25T02:02:01.656Z,11.60
2018-07-25T02:03:06.323Z,12.98
2018-07-25T02:04:10.422Z,12.98
2018-07-25T02:05:14.506Z,13.43
2018-07-25T02:06:18.605Z,12.58
2018-07-25T02:07:22.620Z,11.28
2018-07-25T02:08:26.655Z,12.85
2018-07-25T02:09:30.816Z,13.55
2018-07-25T02:10:38.138Z,13.25
2018-07-25T02:11:42.216Z,12.10
2018-07-25T02:12:46.405Z,13.30
2018-07-25T02:13:50.511Z,13.35
2018-07-25T02:14:54.546Z,13.15
2018-07-25T02:15:58.546Z,12.60
2018-07-25T02:17:02.602Z,12.37
2018-07-25T02:18:07.050Z,12.73
2018-07-25T02:19:11.211Z,12.70
2018-07-25T02:20:14.992Z,12.35
2018-07-25T02:21:18.938Z,12.73
2018-07-25T02:22:23.021Z,12.82
2018-07-25T02:23:27.229Z,12.85
2018-07-25T02:24:31.388Z,12.07
2018-07-25T02:25:35.593Z,12.73
2018-07-25T02:26:39.667Z,14.07
2018-07-25T02:27:43.688Z,12.47
2018-07-25T02:28:47.780Z,12.82
2018-07-25T02:29:51.814Z,13.00
2018-07-25T02:30:55.926Z,13.78
2018-07-25T02:32:00.101Z,14.10
2018-07-25T02:33:04.140Z,13.58
2018-07-25T02:34:13.489Z,13.00
2018-07-25T02:35:17.534Z,12.82
2018-07-25T02:36:21.564Z,13.62
2018-07-25T02:37:25.767Z,13.93
2018-07-25T02:38:29.805Z,14.07
2018-07-25T02:39:33.890Z,14.38
2018-07-25T02:40:37.997Z,14.33
2018-07-25T02:41:42.751Z,12.85
2018-07-25T02:42:46.931Z,12.82
2018-07-25T02:43:51.138Z,13.25
2018-07-25T02:44:55.153Z,13.62
2018-07-25T02:45:59.322Z,12.25
2018-07-25T02:47:03.415Z,13.80
2018-07-25T02:48:07.436Z,13.70
2018-07-25T02:49:11.443Z,13.90
2018-07-25T02:50:15.446Z,14.05
2018-07-25T02:51:19.660Z,14.03
2018-07-25T02:52:23.699Z,12.95
2018-07-25T02:53:27.722Z,12.85
2018-07-25T02:54:31.754Z,14.20
2018-07-25T02:55:35.886Z,13.93
2018-07-25T02:56:39.933Z,13.83
2018-07-25T02:57:43.936Z,13.10
2018-07-25T02:58:47.957Z,13.60
2018-07-25T02:59:53.278Z,12.70
2018-07-25T03:00:58.941Z,14.50
2018-07-25T03:02:03.115Z,13.35
2018-07-25T03:03:07.151Z,14.35
2018-07-25T03:04:11.175Z,13.53
2018-07-25T03:05:15.232Z,13.38
2018-07-25T03:06:19.281Z,13.40
2018-07-25T03:07:23.271Z,12.80
2018-07-25T03:08:27.447Z,14.25
2018-07-25T03:09:31.598Z,13.58
2018-07-25T03:10:35.764Z,14.10
2018-07-25T03:11:39.882Z,13.03
2018-07-25T03:12:43.935Z,13.22
2018-07-25T03:13:48.015Z,13.20
2018-07-25T03:14:52.034Z,13.53
2018-07-25T03:16:06.533Z,13.38
2018-07-25T03:17:10.739Z,13.25
2018-07-25T03:18:14.871Z,13.38
2018-07-25T03:19:18.966Z,13.32
2018-07-25T03:20:23.212Z,13.80
2018-07-25T03:21:27.293Z,13.55
2018-07-25T03:22:31.411Z,13.60
2018-07-25T03:23:36.326Z,12.63
2018-07-25T03:24:40.536Z,13.05
2018-07-25T03:25:44.663Z,13.65
2018-07-25T03:26:48.814Z,12.90
2018-07-25T03:27:52.831Z,13.60
2018-07-25T03:28:56.846Z,13.40
2018-07-25T03:30:00.970Z,14.38
2018-07-25T03:31:05.061Z,13.22
2018-07-25T03:32:09.141Z,13.93
2018-07-25T03:33:13.167Z,13.70
2018-07-25T03:34:17.218Z,13.90
2018-07-25T03:35:21.219Z,14.07
2018-07-25T03:36:25.295Z,13.05
2018-07-25T03:37:29.333Z,13.60
2018-07-25T03:38:33.518Z,12.43
2018-07-25T03:39:37.646Z,14.03
2018-07-25T03:40:41.777Z,13.60
2018-07-25T03:41:45.880Z,13.40
2018-07-25T03:42:49.906Z,12.13
2018-07-25T03:43:54.053Z,13.55
2018-07-25T03:44:58.061Z,13.78
2018-07-25T03:46:02.157Z,13.35
2018-07-25T03:47:06.477Z,13.32
2018-07-25T03:48:10.658Z,13.22
2018-07-25T03:49:14.704Z,14.05
2018-07-25T03:50:18.768Z,13.83
2018-07-25T03:51:22.769Z,14.07
2018-07-25T03:52:27.070Z,12.98
2018-07-25T03:53:31.156Z,13.43
2018-07-25T03:54:35.349Z,13.45
2018-07-25T03:55:39.419Z,15.08
2018-07-25T03:56:43.472Z,14.65
2018-07-25T03:57:47.494Z,13.05
2018-07-25T03:58:51.543Z,13.53
2018-07-25T03:59:55.603Z,12.45
2018-07-25T04:00:59.704Z,13.25
2018-07-25T04:02:03.845Z,13.80
2018-07-25T04:03:07.844Z,13.88
2018-07-25T04:04:12.000Z,13.38
2018-07-25T04:05:16.383Z,13.35
2018-07-25T04:06:20.360Z,14.23
2018-07-25T04:07:24.466Z,13.22
2018-07-25T04:08:28.752Z,12.80
2018-07-25T04:09:32.925Z,12.60
2018-07-25T04:10:37.061Z,11.93
2018-07-25T04:11:41.125Z,13.83
2018-07-25T04:12:45.331Z,14.03
2018-07-25T04:13:49.454Z,13.83
2018-07-25T04:14:53.613Z,13.85
2018-07-25T04:15:57.667Z,14.40
2018-07-25T04:17:01.706Z,13.40
2018-07-25T04:18:06.074Z,13.93
2018-07-25T04:19:10.331Z,13.68
2018-07-25T04:20:15.844Z,14.65
2018-07-25T04:21:19.940Z,13.68
2018-07-25T04:22:24.118Z,14.70
2018-07-25T04:23:28.509Z,13.53
2018-07-25T04:24:32.639Z,12.98
2018-07-25T04:25:36.714Z,13.25
2018-07-25T04:26:40.818Z,13.60
2018-07-25T04:27:45.960Z,13.15
2018-07-25T04:28:50.054Z,13.80
2018-07-25T04:29:54.523Z,13.70
2018-07-25T04:30:58.981Z,13.88
2018-07-25T04:32:03.123Z,13.18
2018-07-25T04:33:07.332Z,13.18
2018-07-25T04:34:11.486Z,13.50
2018-07-25T04:35:16.511Z,13.28
2018-07-25T04:36:20.550Z,13.50
2018-07-25T04:37:24.671Z,13.83
2018-07-25T04:38:28.786Z,12.98
2018-07-25T04:39:32.840Z,13.30
2018-07-25T04:40:36.935Z,13.08
2018-07-25T04:41:41.328Z,13.20
2018-07-25T04:42:45.635Z,14.43
2018-07-25T04:43:49.757Z,13.50
2018-07-25T04:44:53.780Z,13.55
2018-07-25T04:45:57.832Z,13.13
2018-07-25T04:47:01.911Z,14.20
2018-07-25T04:48:05.988Z,13.28
2018-07-25T04:49:10.019Z,15.38
2018-07-25T04:50:14.316Z,14.00
2018-07-25T04:51:19.139Z,13.93
2018-07-25T04:52:23.295Z,14.45
2018-07-25T04:53:27.401Z,14.43
2018-07-25T04:54:32.175Z,13.70
2018-07-25T04:55:36.330Z,14.73
2018-07-25T04:56:40.807Z,13.65
2018-07-25T04:57:44.896Z,12.30
2018-07-25T04:58:48.983Z,13.38
2018-07-25T04:59:53.100Z,14.07
2018-07-25T05:00:57.955Z,13.93
2018-07-25T05:02:02.130Z,13.35
2018-07-25T05:03:06.190Z,13.00
2018-07-25T05:04:10.081Z,12.93
2018-07-25T05:05:14.003Z,13.18
2018-07-25T05:06:18.271Z,13.53
2018-07-25T05:07:23.649Z,12.63
2018-07-25T05:08:27.742Z,13.05
2018-07-25T05:09:32.082Z,13.28
2018-07-25T05:10:36.113Z,12.40
2018-07-25T05:11:40.237Z,12.35
2018-07-25T05:12:44.476Z,12.65
2018-07-25T05:13:48.524Z,12.47
2018-07-25T05:14:52.861Z,12.33
2018-07-25T05:15:56.935Z,12.98
2018-07-25T05:17:01.010Z,12.28
2018-07-25T05:18:05.111Z,13.05
2018-07-25T05:19:09.214Z,12.80
2018-07-25T05:20:13.290Z,12.30
2018-07-25T05:21:17.342Z,12.63
2018-07-25T05:22:21.415Z,12.03
2018-07-25T05:23:25.466Z,12.40
2018-07-25T05:24:29.542Z,13.13
2018-07-25T05:25:33.639Z,12.90
2018-07-25T05:26:37.727Z,13.22
2018-07-25T05:27:41.830Z,13.20
2018-07-25T05:28:45.846Z,12.53
2018-07-25T05:29:49.886Z,13.10
2018-07-25T05:30:54.058Z,12.80
2018-07-25T05:31:58.257Z,11.28
2018-07-25T05:33:02.312Z,11.73
2018-07-25T05:34:06.246Z,11.00
2018-07-25T05:35:10.228Z,11.70
2018-07-25T05:36:14.279Z,11.33
2018-07-25T05:37:18.319Z,13.00
2018-07-25T05:38:22.647Z,11.08
2018-07-25T05:39:26.675Z,11.22
2018-07-25T05:40:30.767Z,11.70
2018-07-25T05:41:34.856Z,12.33
2018-07-25T05:42:38.945Z,13.05
2018-07-25T05:43:43.373Z,11.70
2018-07-25T05:44:47.382Z,11.25
2018-07-25T05:45:51.441Z,11.55
2018-07-25T05:46:55.579Z,12.80
2018-07-25T05:47:59.643Z,11.48
2018-07-25T05:49:04.043Z,11.70
2018-07-25T05:50:08.212Z,13.22
2018-07-25T05:51:12.350Z,11.50
2018-07-25T05:52:16.410Z,11.45
2018-07-25T05:53:20.673Z,12.82
2018-07-25T05:54:24.855Z,12.55
2018-07-25T05:55:28.930Z,12.00
2018-07-25T05:56:32.970Z,11.88
2018-07-25T05:57:37.063Z,11.83
2018-07-25T05:58:41.124Z,12.13
2018-07-25T05:59:45.322Z,12.82
2018-07-25T06:00:49.322Z,12.95
2018-07-25T06:01:53.500Z,12.15
2018-07-25T06:02:57.651Z,12.00
2018-07-25T06:04:01.637Z,17.55
2018-07-25T06:05:05.726Z,13.08
2018-07-25T06:06:09.900Z,14.20
2018-07-25T06:07:13.990Z,15.25
2018-07-25T06:08:18.044Z,19.10
2018-07-25T06:09:22.190Z,13.72
2018-07-25T06:10:26.361Z,11.48
2018-07-25T06:11:30.489Z,12.43
2018-07-25T06:12:34.642Z,12.10
2018-07-25T06:13:38.674Z,10.78
2018-07-25T06:14:42.739Z,12.05
2018-07-25T06:15:46.763Z,12.43
2018-07-25T06:16:50.822Z,13.65
2018-07-25T06:17:55.228Z,12.00
2018-07-25T06:18:59.456Z,11.95
2018-07-25T06:20:03.748Z,12.58
2018-07-25T06:21:07.855Z,11.43
2018-07-25T06:22:13.072Z,12.00
2018-07-25T06:23:17.148Z,11.73
2018-07-25T06:24:21.412Z,11.53
2018-07-25T06:25:25.591Z,11.83
2018-07-25T06:26:29.787Z,11.63
2018-07-25T06:27:33.998Z,12.05
2018-07-25T06:28:38.028Z,11.10
2018-07-25T06:29:42.210Z,13.45
2018-07-25T06:30:46.325Z,10.82
2018-07-25T06:31:50.349Z,13.25
2018-07-25T06:32:54.414Z,11.88
2018-07-25T06:33:58.514Z,11.85
2018-07-25T06:35:02.560Z,12.13
2018-07-25T06:36:06.895Z,10.98
2018-07-25T06:37:10.991Z,11.95
2018-07-25T06:38:15.362Z,11.28
2018-07-25T06:39:19.606Z,11.50
2018-07-25T06:40:23.660Z,12.47
2018-07-25T06:41:27.795Z,11.48
2018-07-25T06:42:31.919Z,11.53
2018-07-25T06:43:36.099Z,11.80
2018-07-25T06:44:40.320Z,11.03
2018-07-25T06:45:44.412Z,11.12
2018-07-25T06:46:48.481Z,11.28
2018-07-25T06:47:52.642Z,10.78
2018-07-25T06:48:56.683Z,11.00
2018-07-25T06:50:00.726Z,11.20
2018-07-25T06:51:04.494Z,10.95
2018-07-25T06:52:08.463Z,11.22
2018-07-25T06:53:12.594Z,11.60
2018-07-25T06:54:16.735Z,10.55
2018-07-25T06:55:20.788Z,11.45
2018-07-25T06:56:24.867Z,11.48
2018-07-25T06:57:29.055Z,12.05
2018-07-25T06:58:33.298Z,12.15
2018-07-25T06:59:37.588Z,10.80
2018-07-25T07:00:41.680Z,12.90
2018-07-25T07:01:45.691Z,11.40
2018-07-25T07:02:49.794Z,10.55
2018-07-25T07:03:54.004Z,10.48
2018-07-25T07:04:58.406Z,10.90
2018-07-25T07:06:02.509Z,11.15
2018-07-25T07:07:06.593Z,10.70
2018-07-25T07:08:10.721Z,11.63
2018-07-25T07:09:14.800Z,11.60
2018-07-25T07:10:18.886Z,11.33
2018-07-25T07:11:22.947Z,11.70
2018-07-25T07:12:27.219Z,10.90
2018-07-25T07:13:31.282Z,10.15
2018-07-25T07:14:35.490Z,11.38
2018-07-25T07:15:39.547Z,11.00
2018-07-25T07:16:43.673Z,11.50
2018-07-25T07:17:47.735Z,10.98
2018-07-25T07:18:51.786Z,10.65
2018-07-25T07:19:55.946Z,11.50
2018-07-25T07:21:00.155Z,12.37
2018-07-25T07:22:04.406Z,11.12
2018-07-25T07:23:08.467Z,11.08
2018-07-25T07:24:12.531Z,10.35
2018-07-25T07:25:16.598Z,11.18
2018-07-25T07:26:20.707Z,11.43
2018-07-25T07:27:24.850Z,11.78
2018-07-25T07:28:29.001Z,9.73
2018-07-25T07:29:33.035Z,12.23
2018-07-25T07:30:37.181Z,10.85
2018-07-25T07:31:41.195Z,10.90
2018-07-25T07:32:45.265Z,10.13
2018-07-25T07:33:49.293Z,10.28
2018-07-25T07:34:53.424Z,10.95
2018-07-25T07:35:57.494Z,10.38
2018-07-25T07:37:01.554Z,10.75
2018-07-25T07:38:06.044Z,10.93
2018-07-25T07:39:12.220Z,9.95
2018-07-25T07:40:16.319Z,10.90
2018-07-25T07:41:20.346Z,10.68
2018-07-25T07:42:24.400Z,11.12
2018-07-25T07:43:29.008Z,9.85
2018-07-25T07:44:33.189Z,10.00
2018-07-25T07:45:37.412Z,10.03
2018-07-25T07:46:41.446Z,9.80
2018-07-25T07:47:45.536Z,10.65
2018-07-25T07:48:49.539Z,9.80
2018-07-25T07:49:53.525Z,10.35
2018-07-25T07:50:57.563Z,9.45
2018-07-25T07:52:01.649Z,10.53
2018-07-25T07:53:05.854Z,10.10
2018-07-25T07:54:09.940Z,9.83
2018-07-25T07:55:14.155Z,9.28
2018-07-25T07:56:18.180Z,10.45
2018-07-25T07:57:22.300Z,9.25
2018-07-25T07:58:27.218Z,9.75
2018-07-25T07:59:31.388Z,8.75
2018-07-25T08:00:35.461Z,9.75
2018-07-25T08:01:39.594Z,10.48
2018-07-25T08:02:43.625Z,10.10
2018-07-25T08:03:47.638Z,8.70
2018-07-25T08:04:51.724Z,9.98
2018-07-25T08:05:55.767Z,9.08
2018-07-25T08:06:59.838Z,9.83
2018-07-25T08:08:03.895Z,10.03
2018-07-25T08:09:10.240Z,9.15
2018-07-25T08:10:14.475Z,9.08
2018-07-25T08:11:19.173Z,10.43
2018-07-25T08:12:23.287Z,11.03
2018-07-25T08:13:27.337Z,11.12
2018-07-25T08:14:31.384Z,9.68
2018-07-25T08:15:35.590Z,9.55
2018-07-25T08:16:39.611Z,9.55
2018-07-25T08:17:43.785Z,9.48
2018-07-25T08:18:47.952Z,9.58
2018-07-25T08:19:52.011Z,10.38
2018-07-25T08:20:56.268Z,9.58
2018-07-25T08:22:00.385Z,9.20
2018-07-25T08:23:04.483Z,9.55
2018-07-25T08:24:08.576Z,10.25
2018-07-25T08:25:12.698Z,10.03
2018-07-25T08:26:16.818Z,10.05
2018-07-25T08:27:21.031Z,9.45
2018-07-25T08:28:25.095Z,9.63
2018-07-25T08:29:29.416Z,10.30
2018-07-25T08:30:33.462Z,10.45
2018-07-25T08:31:37.558Z,10.20
2018-07-25T08:32:41.659Z,9.98
2018-07-25T08:33:45.655Z,10.60
2018-07-25T08:34:49.865Z,10.60
2018-07-25T08:35:53.859Z,11.30
2018-07-25T08:36:57.962Z,10.95
2018-07-25T08:38:02.132Z,10.48
2018-07-25T08:39:08.834Z,10.90
2018-07-25T08:40:13.027Z,10.72
2018-07-25T08:41:17.206Z,10.03
2018-07-25T08:42:21.168Z,10.60
2018-07-25T08:43:25.254Z,10.60
2018-07-25T08:44:29.292Z,11.00
2018-07-25T08:45:33.362Z,10.45
2018-07-25T08:46:37.588Z,10.80
2018-07-25T08:47:41.670Z,10.13
2018-07-25T08:48:45.754Z,10.85
2018-07-25T08:49:49.787Z,11.22
2018-07-25T08:50:53.762Z,10.80
2018-07-25T08:51:57.866Z,10.55
2018-07-25T08:53:01.966Z,9.58
2018-07-25T08:54:06.271Z,10.23
2018-07-25T08:55:10.326Z,10.68
2018-07-25T08:56:14.456Z,10.75
2018-07-25T08:57:18.887Z,9.88
2018-07-25T08:58:22.967Z,9.60
2018-07-25T08:59:26.992Z,10.93
2018-07-25T09:00:31.205Z,11.00
2018-07-25T09:01:35.214Z,10.13
2018-07-25T09:02:39.250Z,10.85
2018-07-25T09:03:43.329Z,11.10
2018-07-25T09:04:47.325Z,11.18
2018-07-25T09:05:51.404Z,10.20
2018-07-25T09:06:55.597Z,9.83
2018-07-25T09:07:59.661Z,10.43
2018-07-25T09:09:06.177Z,9.60
2018-07-25T09:10:10.277Z,10.35
2018-07-25T09:11:14.302Z,9.55
2018-07-25T09:12:18.433Z,10.00
2018-07-25T09:13:22.688Z,9.60
2018-07-25T09:14:26.758Z,9.95
2018-07-25T09:15:30.868Z,9.85
2018-07-25T09:16:35.043Z,9.33
2018-07-25T09:17:39.094Z,10.60
2018-07-25T09:18:43.203Z,10.30
2018-07-25T09:19:47.311Z,10.45
2018-07-25T09:20:51.324Z,10.50
2018-07-25T09:21:55.401Z,9.85
2018-07-25T09:22:59.449Z,10.18
2018-07-25T09:24:03.644Z,9.63
2018-07-25T09:25:07.696Z,9.90
2018-07-25T09:26:11.869Z,10.13
2018-07-25T09:27:16.142Z,10.05
2018-07-25T09:28:20.190Z,9.55
2018-07-25T09:29:24.249Z,9.60
2018-07-25T09:30:28.321Z,8.40
2018-07-25T09:31:32.545Z,10.78
2018-07-25T09:32:36.585Z,9.63
2018-07-25T09:33:40.652Z,9.55
2018-07-25T09:34:44.687Z,10.20
2018-07-25T09:35:48.767Z,10.10
2018-07-25T09:36:52.747Z,9.90
2018-07-25T09:37:56.806Z,9.05
2018-07-25T09:39:00.966Z,9.78
2018-07-25T09:40:05.316Z,9.10
2018-07-25T09:41:09.153Z,8.90
2018-07-25T09:42:13.422Z,9.10
2018-07-25T09:43:17.581Z,8.78
2018-07-25T09:44:21.945Z,10.13
2018-07-25T09:45:25.993Z,10.35
2018-07-25T09:46:30.013Z,9.10
2018-07-25T09:47:34.114Z,8.35
2018-07-25T09:48:38.247Z,9.28
2018-07-25T09:49:42.342Z,9.28
2018-07-25T09:50:46.489Z,8.53
2018-07-25T09:51:51.326Z,8.88
2018-07-25T09:52:55.423Z,8.20
2018-07-25T09:53:59.516Z,9.35
2018-07-25T09:55:03.610Z,9.38
2018-07-25T09:56:07.587Z,9.05
2018-07-25T09:57:11.653Z,9.95
2018-07-25T09:58:15.691Z,9.58
2018-07-25T09:59:19.739Z,10.23
2018-07-25T10:00:29.320Z,9.13
2018-07-25T10:01:33.359Z,9.50
2018-07-25T10:02:37.966Z,9.35
2018-07-25T10:03:42.186Z,10.53
2018-07-25T10:04:46.254Z,9.80
2018-07-25T10:05:50.399Z,9.38
2018-07-25T10:06:54.723Z,9.53
2018-07-25T10:07:58.707Z,9.50
2018-07-25T10:09:02.962Z,9.58
2018-07-25T10:10:07.409Z,9.15
2018-07-25T10:11:11.453Z,9.08
2018-07-25T10:12:15.773Z,9.25
2018-07-25T10:13:19.775Z,9.40
2018-07-25T10:14:24.396Z,8.68
2018-07-25T10:15:28.967Z,9.63
2018-07-25T10:16:33.112Z,9.30
2018-07-25T10:17:37.500Z,9.70
2018-07-25T10:18:41.685Z,10.55
2018-07-25T10:19:45.875Z,8.90
2018-07-25T10:20:49.975Z,8.60
2018-07-25T10:21:54.120Z,9.85
2018-07-25T10:22:58.146Z,9.68
2018-07-25T10:24:02.289Z,9.90
2018-07-25T10:25:06.356Z,10.08
2018-07-25T10:26:10.485Z,9.73
2018-07-25T10:27:14.491Z,9.48
2018-07-25T10:28:18.503Z,8.58
2018-07-25T10:29:22.688Z,9.90
2018-07-25T10:30:26.928Z,9.83
2018-07-25T10:31:31.276Z,9.03
2018-07-25T10:32:35.301Z,9.88
2018-07-25T10:33:39.455Z,9.48
2018-07-25T10:34:43.516Z,9.68
2018-07-25T10:35:47.884Z,10.40
2018-07-25T10:36:51.916Z,9.50
2018-07-25T10:37:55.962Z,8.30
2018-07-25T10:39:00.227Z,9.00
2018-07-25T10:40:04.887Z,7.90
2018-07-25T10:41:08.954Z,7.50
2018-07-25T10:42:13.334Z,8.55
2018-07-25T10:43:17.399Z,7.95
2018-07-25T10:44:21.450Z,7.80
2018-07-25T10:45:25.553Z,8.58
2018-07-25T10:46:29.516Z,8.50
2018-07-25T10:47:33.650Z,7.97
2018-07-25T10:48:37.712Z,7.83
2018-07-25T10:49:41.722Z,9.50
2018-07-25T10:50:45.841Z,7.03
2018-07-25T10:51:49.850Z,8.00
2018-07-25T10:52:53.936Z,8.03
2018-07-25T10:53:58.035Z,9.28
2018-07-25T10:55:02.183Z,9.05
2018-07-25T10:56:06.523Z,8.43
2018-07-25T10:57:10.586Z,8.20
2018-07-25T10:58:14.642Z,9.13
2018-07-25T10:59:18.669Z,9.08
2018-07-25T11:00:22.807Z,9.50
2018-07-25T11:01:26.870Z,8.85
2018-07-25T11:02:31.029Z,9.85
2018-07-25T11:03:35.074Z,8.70
2018-07-25T11:04:39.119Z,9.20
2018-07-25T11:05:43.183Z,9.58
2018-07-25T11:06:47.414Z,8.55
2018-07-25T11:07:51.676Z,8.00
2018-07-25T11:08:55.767Z,8.40
2018-07-25T11:09:59.800Z,8.30
2018-07-25T11:11:03.882Z,8.90
2018-07-25T11:12:08.114Z,9.10
2018-07-25T11:13:12.469Z,8.88
2018-07-25T11:14:16.516Z,8.45
2018-07-25T11:15:20.593Z,9.25
2018-07-25T11:16:25.206Z,9.28
2018-07-25T11:17:29.214Z,8.30
2018-07-25T11:18:33.398Z,9.55
2018-07-25T11:19:37.470Z,9.60
2018-07-25T11:20:41.539Z,8.90
2018-07-25T11:21:45.543Z,9.85
2018-07-25T11:22:56.037Z,8.73
2018-07-25T11:24:00.095Z,8.18
2018-07-25T11:25:04.395Z,7.87
2018-07-25T11:26:08.438Z,8.18
2018-07-25T11:27:12.611Z,7.17
2018-07-25T11:28:16.664Z,7.75
2018-07-25T11:29:20.744Z,8.28
2018-07-25T11:30:24.780Z,8.20
2018-07-25T11:31:28.822Z,6.97
2018-07-25T11:32:32.805Z,8.03
2018-07-25T11:33:36.935Z,8.08
2018-07-25T11:34:41.063Z,8.23
2018-07-25T11:35:45.205Z,7.80
2018-07-25T11:36:49.217Z,8.40
2018-07-25T11:37:53.245Z,6.87
2018-07-25T11:38:57.373Z,8.45
2018-07-25T11:40:01.385Z,7.70
2018-07-25T11:41:05.787Z,7.35
2018-07-25T11:42:09.895Z,8.13
2018-07-25T11:43:13.931Z,7.90
2018-07-25T11:44:17.951Z,8.40
2018-07-25T11:45:22.030Z,7.33
2018-07-25T11:46:26.132Z,7.65
2018-07-25T11:47:30.211Z,7.67
2018-07-25T11:48:34.226Z,7.78
2018-07-25T11:49:38.306Z,7.53
2018-07-25T11:50:42.406Z,7.15
2018-07-25T11:51:46.513Z,8.70
2018-07-25T11:52:50.619Z,8.05
2018-07-25T11:53:54.675Z,7.45
2018-07-25T11:54:59.162Z,6.95
2018-07-25T11:56:03.289Z,6.75
2018-07-25T11:57:07.247Z,6.85
2018-07-25T11:58:11.301Z,7.50
2018-07-25T11:59:15.441Z,7.60
2018-07-25T12:00:19.481Z,7.30
2018-07-25T12:01:23.581Z,7.83
2018-07-25T12:02:27.584Z,8.10
2018-07-25T12:03:31.937Z,6.78
2018-07-25T12:04:36.043Z,6.78
2018-07-25T12:05:40.050Z,6.72
2018-07-25T12:06:44.095Z,7.47
2018-07-25T12:07:48.116Z,6.78
2018-07-25T12:08:52.275Z,7.17
2018-07-25T12:09:56.300Z,6.60
2018-07-25T12:11:00.314Z,6.58
2018-07-25T12:12:04.419Z,7.50
2018-07-25T12:13:08.489Z,6.22
2018-07-25T12:14:13.723Z,7.17
2018-07-25T12:15:18.173Z,6.90
2018-07-25T12:16:22.243Z,6.95
2018-07-25T12:17:26.683Z,7.72
2018-07-25T12:18:30.724Z,6.83
2018-07-25T12:19:34.776Z,7.70
2018-07-25T12:20:38.830Z,7.83
2018-07-25T12:21:42.934Z,6.53
2018-07-25T12:22:46.970Z,6.60
2018-07-25T12:23:50.969Z,7.30
2018-07-25T12:24:55.029Z,6.47
2018-07-25T12:25:59.182Z,6.00
2018-07-25T12:27:03.366Z,6.80
2018-07-25T12:28:07.381Z,6.87
2018-07-25T12:29:14.456Z,6.22
2018-07-25T12:30:18.444Z,6.85
2018-07-25T12:31:22.515Z,6.67
2018-07-25T12:32:26.523Z,6.40
2018-07-25T12:33:30.612Z,6.70
2018-07-25T12:34:34.650Z,7.35
2018-07-25T12:35:38.722Z,6.90
2018-07-25T12:36:42.898Z,7.10
2018-07-25T12:37:46.923Z,6.85
2018-07-25T12:38:50.990Z,7.33
2018-07-25T12:39:54.985Z,6.42
2018-07-25T12:40:59.035Z,7.58
2018-07-25T12:42:03.051Z,6.58
2018-07-25T12:43:07.195Z,7.20
2018-07-25T12:44:11.297Z,6.55
2018-07-25T12:45:15.639Z,6.95
2018-07-25T12:46:19.720Z,6.75
2018-07-25T12:47:23.783Z,7.42
2018-07-25T12:48:27.893Z,6.03
2018-07-25T12:49:31.614Z,6.35
2018-07-25T12:50:35.501Z,7.08
2018-07-25T12:51:39.623Z,6.40
2018-07-25T12:52:43.962Z,7.30
2018-07-25T12:53:48.180Z,7.37
2018-07-25T12:54:52.118Z,6.30
2018-07-25T12:55:56.119Z,6.10
2018-07-25T12:57:00.144Z,6.55
2018-07-25T12:58:04.307Z,6.20
2018-07-25T12:59:08.358Z,7.30
2018-07-25T13:00:12.441Z,6.15
2018-07-25T13:01:16.619Z,6.03
2018-07-25T13:02:20.643Z,6.67
2018-07-25T13:03:25.159Z,6.08
2018-07-25T13:04:29.654Z,5.80
2018-07-25T13:05:33.694Z,5.60
2018-07-25T13:06:38.081Z,5.47
2018-07-25T13:07:42.211Z,5.65
2018-07-25T13:08:46.254Z,5.75
2018-07-25T13:09:50.314Z,5.90
2018-07-25T13:10:54.477Z,6.17
2018-07-25T13:11:58.563Z,6.00
2018-07-25T13:13:02.618Z,7.47
2018-07-25T13:14:07.202Z,6.30
2018-07-25T13:15:11.263Z,5.53
2018-07-25T13:16:15.369Z,5.90
2018-07-25T13:17:19.439Z,5.40
2018-07-25T13:18:23.228Z,5.28
2018-07-25T13:19:27.160Z,5.78
2018-07-25T13:20:31.179Z,5.75
2018-07-25T13:21:35.596Z,5.35
2018-07-25T13:22:41.543Z,6.97
2018-07-25T13:23:45.323Z,5.72
2018-07-25T13:24:49.689Z,5.67
2018-07-25T13:25:56.846Z,5.15
2018-07-25T13:27:00.918Z,4.95
2018-07-25T13:28:05.044Z,4.90
2018-07-25T13:29:10.570Z,5.92
2018-07-25T13:30:14.751Z,5.65
2018-07-25T13:31:18.955Z,6.05
2018-07-25T13:32:22.989Z,6.33
2018-07-25T13:33:27.176Z,6.47
2018-07-25T13:34:31.303Z,6.60
2018-07-25T13:35:35.281Z,5.92
2018-07-25T13:36:39.385Z,5.60
2018-07-25T13:37:43.558Z,5.83
2018-07-25T13:38:47.633Z,6.17
2018-07-25T13:39:51.773Z,6.53
2018-07-25T13:40:55.809Z,6.62
2018-07-25T13:41:59.921Z,6.15
2018-07-25T13:43:04.056Z,6.10
2018-07-25T13:44:08.830Z,6.45
2018-07-25T13:45:12.878Z,6.22
2018-07-25T13:46:17.332Z,5.55
2018-07-25T13:47:21.244Z,6.42
2018-07-25T13:48:25.422Z,6.25
2018-07-25T13:49:29.485Z,6.67
2018-07-25T13:50:33.602Z,6.20
2018-07-25T13:51:37.681Z,6.30
2018-07-25T13:52:41.743Z,6.08
2018-07-25T13:53:46.338Z,7.05
2018-07-25T13:54:50.618Z,6.45
2018-07-25T13:55:54.701Z,6.17